sensor_id;sensor_type;location;lat;lon;timestamp;P1;durP1;ratioP1;P2;durP2;ratioP2
59066;SDS011;44854;50.838;4.438;2024-01-11T05:44:13;61.67;;;28.55;;
59066;SDS011;44854;50.838;4.438;2024-01-11T05:46:39;61.95;;;27.88;;
59066;SDS011;44854;50.838;4.438;2024-01-11T05:49:04;56.75;;;28.08;;
59066;SDS011;44854;50.838;4.438;2024-01-11T05:51:30;66.80;;;29.10;;
59066;SDS011;44854;50.838;4.438;2024-01-11T05:53:56;59.80;;;28.17;;
59066;SDS011;44854;50.838;4.438;2024-01-11T05:56:22;59.95;;;28.58;;
59066;SDS011;44854;50.838;4.438;2024-01-11T05:58:48;58.17;;;28.02;;
59066;SDS011;44854;50.838;4.438;2024-01-11T06:01:13;58.47;;;26.92;;
59066;SDS011;44854;50.838;4.438;2024-01-11T06:04:13;57.65;;;27.98;;
59066;SDS011;44854;50.838;4.438;2024-01-11T06:06:32;56.40;;;27.92;;
59066;SDS011;44854;50.838;4.438;2024-01-11T06:09:03;61.50;;;27.98;;
59066;SDS011;44854;50.838;4.438;2024-01-11T06:12:19;63.40;;;29.92;;
59066;SDS011;44854;50.838;4.438;2024-01-11T06:14:58;61.75;;;29.20;;
59066;SDS011;44854;50.838;4.438;2024-01-11T06:17:23;62.55;;;29.13;;
59066;SDS011;44854;50.838;4.438;2024-01-11T06:19:49;57.15;;;26.70;;
59066;SDS011;44854;50.838;4.438;2024-01-11T06:22:15;63.22;;;29.75;;
59066;SDS011;44854;50.838;4.438;2024-01-11T06:24:41;55.20;;;27.15;;
59066;SDS011;44854;50.838;4.438;2024-01-11T06:27:07;74.43;;;29.95;;
59066;SDS011;44854;50.838;4.438;2024-01-11T06:29:32;61.13;;;29.27;;
59066;SDS011;44854;50.838;4.438;2024-01-11T06:31:58;63.40;;;29.10;;
59066;SDS011;44854;50.838;4.438;2024-01-11T06:34:24;60.33;;;29.73;;
59066;SDS011;44854;50.838;4.438;2024-01-11T06:36:50;60.38;;;29.73;;
59066;SDS011;44854;50.838;4.438;2024-01-11T06:39:15;71.28;;;29.40;;
59066;SDS011;44854;50.838;4.438;2024-01-11T06:41:41;61.58;;;28.77;;
59066;SDS011;44854;50.838;4.438;2024-01-11T06:44:07;59.72;;;28.73;;
59066;SDS011;44854;50.838;4.438;2024-01-11T06:46:33;61.75;;;28.95;;
59066;SDS011;44854;50.838;4.438;2024-01-11T06:49:01;66.65;;;29.98;;
59066;SDS011;44854;50.838;4.438;2024-01-11T06:51:27;63.83;;;30.73;;
59066;SDS011;44854;50.838;4.438;2024-01-11T06:53:53;64.70;;;32.75;;
59066;SDS011;44854;50.838;4.438;2024-01-11T06:56:19;61.15;;;29.70;;
59066;SDS011;44854;50.838;4.438;2024-01-11T06:58:46;60.77;;;28.70;;
59066;SDS011;44854;50.838;4.438;2024-01-11T07:01:12;58.88;;;29.98;;
59066;SDS011;44854;50.838;4.438;2024-01-11T07:03:38;65.65;;;30.65;;
59066;SDS011;44854;50.838;4.438;2024-01-11T07:06:04;65.85;;;29.60;;
59066;SDS011;44854;50.838;4.438;2024-01-11T07:08:30;61.30;;;31.38;;
59066;SDS011;44854;50.838;4.438;2024-01-11T07:10:57;62.80;;;30.65;;
59066;SDS011;44854;50.838;4.438;2024-01-11T07:13:24;65.72;;;28.92;;
59066;SDS011;44854;50.838;4.438;2024-01-11T07:15:50;61.50;;;29.30;;
59066;SDS011;44854;50.838;4.438;2024-01-11T07:18:20;61.67;;;28.50;;
59066;SDS011;44854;50.838;4.438;2024-01-11T07:20:46;59.60;;;30.65;;
59066;SDS011;44854;50.838;4.438;2024-01-11T07:23:13;63.50;;;31.00;;
59066;SDS011;44854;50.838;4.438;2024-01-11T07:25:38;74.63;;;30.67;;
59066;SDS011;44854;50.838;4.438;2024-01-11T07:28:05;56.10;;;28.45;;
59066;SDS011;44854;50.838;4.438;2024-01-11T07:30:31;60.25;;;29.42;;
59066;SDS011;44854;50.838;4.438;2024-01-11T07:32:57;59.45;;;28.00;;
59066;SDS011;44854;50.838;4.438;2024-01-11T07:35:23;60.22;;;29.23;;
59066;SDS011;44854;50.838;4.438;2024-01-11T07:37:49;66.93;;;31.35;;
59066;SDS011;44854;50.838;4.438;2024-01-11T07:40:15;64.90;;;31.33;;
59066;SDS011;44854;50.838;4.438;2024-01-11T07:42:41;70.80;;;30.30;;
59066;SDS011;44854;50.838;4.438;2024-01-11T07:45:08;63.15;;;29.65;;
59066;SDS011;44854;50.838;4.438;2024-01-11T07:47:37;65.78;;;29.77;;
59066;SDS011;44854;50.838;4.438;2024-01-11T07:50:04;68.57;;;29.98;;
59066;SDS011;44854;50.838;4.438;2024-01-11T07:52:31;72.88;;;30.17;;
59066;SDS011;44854;50.838;4.438;2024-01-11T07:54:58;63.58;;;29.92;;
59066;SDS011;44854;50.838;4.438;2024-01-11T07:57:31;61.67;;;28.60;;
59066;SDS011;44854;50.838;4.438;2024-01-11T07:59:58;73.97;;;32.15;;
59066;SDS011;44854;50.838;4.438;2024-01-11T08:02:24;66.22;;;29.80;;
59066;SDS011;44854;50.838;4.438;2024-01-11T08:04:50;68.65;;;31.15;;
59066;SDS011;44854;50.838;4.438;2024-01-11T08:07:16;58.95;;;30.17;;
59066;SDS011;44854;50.838;4.438;2024-01-11T08:09:42;74.10;;;31.05;;
59066;SDS011;44854;50.838;4.438;2024-01-11T08:12:12;66.05;;;29.98;;
59066;SDS011;44854;50.838;4.438;2024-01-11T08:14:41;67.63;;;29.48;;
59066;SDS011;44854;50.838;4.438;2024-01-11T08:17:07;63.15;;;31.63;;
59066;SDS011;44854;50.838;4.438;2024-01-11T08:19:33;63.78;;;30.52;;
59066;SDS011;44854;50.838;4.438;2024-01-11T08:33:20;68.30;;;30.63;;
59066;SDS011;44854;50.838;4.438;2024-01-11T08:35:45;76.47;;;32.58;;
59066;SDS011;44854;50.838;4.438;2024-01-11T08:38:11;72.55;;;31.83;;
59066;SDS011;44854;50.838;4.438;2024-01-11T08:40:42;73.65;;;31.08;;
59066;SDS011;44854;50.838;4.438;2024-01-11T08:43:17;66.45;;;31.10;;
59066;SDS011;44854;50.838;4.438;2024-01-11T08:45:42;65.43;;;31.17;;
59066;SDS011;44854;50.838;4.438;2024-01-11T08:48:12;68.13;;;32.10;;
59066;SDS011;44854;50.838;4.438;2024-01-11T08:50:47;69.75;;;31.70;;
59066;SDS011;44854;50.838;4.438;2024-01-11T08:53:17;66.55;;;31.65;;
59066;SDS011;44854;50.838;4.438;2024-01-11T08:55:45;76.68;;;33.20;;
59066;SDS011;44854;50.838;4.438;2024-01-11T08:58:11;70.32;;;31.25;;
59066;SDS011;44854;50.838;4.438;2024-01-11T09:00:37;62.33;;;31.33;;
59066;SDS011;44854;50.838;4.438;2024-01-11T09:03:03;68.60;;;32.22;;
59066;SDS011;44854;50.838;4.438;2024-01-11T09:05:29;69.22;;;32.35;;
59066;SDS011;44854;50.838;4.438;2024-01-11T09:07:55;82.03;;;32.45;;
59066;SDS011;44854;50.838;4.438;2024-01-11T09:10:21;65.85;;;31.70;;
59066;SDS011;44854;50.838;4.438;2024-01-11T09:12:47;67.95;;;32.08;;
59066;SDS011;44854;50.838;4.438;2024-01-11T09:15:13;65.45;;;33.40;;
59066;SDS011;44854;50.838;4.438;2024-01-11T09:17:39;62.85;;;32.45;;
59066;SDS011;44854;50.838;4.438;2024-01-11T09:20:05;76.15;;;34.33;;
59066;SDS011;44854;50.838;4.438;2024-01-11T09:22:31;65.60;;;32.15;;
59066;SDS011;44854;50.838;4.438;2024-01-11T09:24:57;70.53;;;32.58;;
59066;SDS011;44854;50.838;4.438;2024-01-11T09:27:23;61.72;;;31.83;;
59066;SDS011;44854;50.838;4.438;2024-01-11T09:29:49;64.45;;;31.13;;
59066;SDS011;44854;50.838;4.438;2024-01-11T09:32:15;65.00;;;33.85;;
59066;SDS011;44854;50.838;4.438;2024-01-11T09:34:40;63.45;;;32.00;;
59066;SDS011;44854;50.838;4.438;2024-01-11T09:37:06;78.25;;;34.88;;
59066;SDS011;44854;50.838;4.438;2024-01-11T09:39:32;64.88;;;33.20;;
59066;SDS011;44854;50.838;4.438;2024-01-11T09:41:58;61.20;;;32.72;;
59066;SDS011;44854;50.838;4.438;2024-01-11T09:44:36;72.18;;;31.90;;
59066;SDS011;44854;50.838;4.438;2024-01-11T09:47:08;69.05;;;34.60;;
59066;SDS011;44854;50.838;4.438;2024-01-11T09:49:35;71.05;;;34.88;;
59066;SDS011;44854;50.838;4.438;2024-01-11T09:52:05;65.47;;;33.65;;
59066;SDS011;44854;50.838;4.438;2024-01-11T09:54:34;63.03;;;30.98;;
59066;SDS011;44854;50.838;4.438;2024-01-11T09:57:04;71.60;;;32.50;;
59066;SDS011;44854;50.838;4.438;2024-01-11T09:59:38;67.15;;;33.47;;
59066;SDS011;44854;50.838;4.438;2024-01-11T10:02:05;67.78;;;34.00;;
59066;SDS011;44854;50.838;4.438;2024-01-11T10:04:34;74.07;;;35.85;;
59066;SDS011;44854;50.838;4.438;2024-01-11T10:07:05;74.32;;;35.35;;
59066;SDS011;44854;50.838;4.438;2024-01-11T10:09:31;66.75;;;34.50;;
59066;SDS011;44854;50.838;4.438;2024-01-11T10:11:57;69.50;;;34.13;;
59066;SDS011;44854;50.838;4.438;2024-01-11T10:14:23;74.05;;;36.25;;
59066;SDS011;44854;50.838;4.438;2024-01-11T10:16:49;64.50;;;34.13;;
59066;SDS011;44854;50.838;4.438;2024-01-11T10:19:15;64.75;;;31.85;;
59066;SDS011;44854;50.838;4.438;2024-01-11T10:21:50;72.40;;;33.42;;
59066;SDS011;44854;50.838;4.438;2024-01-11T10:24:19;75.00;;;36.72;;
59066;SDS011;44854;50.838;4.438;2024-01-11T10:26:46;71.28;;;36.15;;
59066;SDS011;44854;50.838;4.438;2024-01-11T10:29:11;72.03;;;35.88;;
59066;SDS011;44854;50.838;4.438;2024-01-11T10:31:38;76.00;;;36.78;;
59066;SDS011;44854;50.838;4.438;2024-01-11T10:34:04;75.00;;;36.15;;
59066;SDS011;44854;50.838;4.438;2024-01-11T10:36:31;74.70;;;34.72;;
59066;SDS011;44854;50.838;4.438;2024-01-11T10:38:58;75.68;;;36.30;;
59066;SDS011;44854;50.838;4.438;2024-01-11T10:41:29;73.45;;;33.72;;
59066;SDS011;44854;50.838;4.438;2024-01-11T10:44:15;77.57;;;36.70;;
59066;SDS011;44854;50.838;4.438;2024-01-11T10:46:47;72.72;;;37.20;;
59066;SDS011;44854;50.838;4.438;2024-01-11T10:49:20;73.90;;;35.50;;
59066;SDS011;44854;50.838;4.438;2024-01-11T10:52:02;78.53;;;36.42;;
59066;SDS011;44854;50.838;4.438;2024-01-11T10:54:30;82.25;;;37.95;;
59066;SDS011;44854;50.838;4.438;2024-01-11T10:56:59;78.45;;;38.10;;
59066;SDS011;44854;50.838;4.438;2024-01-11T10:59:26;68.35;;;32.60;;
59066;SDS011;44854;50.838;4.438;2024-01-11T11:01:56;75.80;;;37.53;;
59066;SDS011;44854;50.838;4.438;2024-01-11T11:04:27;65.15;;;34.88;;
59066;SDS011;44854;50.838;4.438;2024-01-11T11:06:56;79.18;;;38.42;;
59066;SDS011;44854;50.838;4.438;2024-01-11T11:09:28;72.65;;;35.10;;
59066;SDS011;44854;50.838;4.438;2024-01-11T11:11:58;70.47;;;35.67;;
59066;SDS011;44854;50.838;4.438;2024-01-11T11:14:24;78.72;;;36.40;;
59066;SDS011;44854;50.838;4.438;2024-01-11T11:16:50;64.82;;;33.15;;
59066;SDS011;44854;50.838;4.438;2024-01-11T11:19:20;72.55;;;35.00;;
59066;SDS011;44854;50.838;4.438;2024-01-11T11:21:59;72.63;;;33.58;;
59066;SDS011;44854;50.838;4.438;2024-01-11T11:24:29;67.53;;;36.00;;
59066;SDS011;44854;50.838;4.438;2024-01-11T11:26:55;69.30;;;34.95;;
59066;SDS011;44854;50.838;4.438;2024-01-11T11:29:22;81.00;;;36.93;;
59066;SDS011;44854;50.838;4.438;2024-01-11T11:31:48;66.60;;;33.00;;
59066;SDS011;44854;50.838;4.438;2024-01-11T11:34:39;64.45;;;33.47;;
59066;SDS011;44854;50.838;4.438;2024-01-11T11:37:06;67.38;;;33.80;;
59066;SDS011;44854;50.838;4.438;2024-01-11T11:39:32;67.90;;;32.20;;
59066;SDS011;44854;50.838;4.438;2024-01-11T11:41:59;68.45;;;35.55;;
59066;SDS011;44854;50.838;4.438;2024-01-11T11:44:26;65.40;;;32.63;;
59066;SDS011;44854;50.838;4.438;2024-01-11T11:46:52;70.78;;;34.47;;
59066;SDS011;44854;50.838;4.438;2024-01-11T11:49:18;69.50;;;33.78;;
59066;SDS011;44854;50.838;4.438;2024-01-11T11:51:44;63.47;;;32.40;;
59066;SDS011;44854;50.838;4.438;2024-01-11T11:54:09;66.78;;;33.60;;
59066;SDS011;44854;50.838;4.438;2024-01-11T11:56:37;59.92;;;31.23;;
59066;SDS011;44854;50.838;4.438;2024-01-11T11:59:03;55.67;;;31.73;;
59066;SDS011;44854;50.838;4.438;2024-01-11T12:01:29;78.30;;;32.53;;
59066;SDS011;44854;50.838;4.438;2024-01-11T12:03:57;60.58;;;31.70;;
59066;SDS011;44854;50.838;4.438;2024-01-11T12:06:23;62.03;;;34.00;;
59066;SDS011;44854;50.838;4.438;2024-01-11T12:08:54;58.47;;;30.10;;
59066;SDS011;44854;50.838;4.438;2024-01-11T12:11:20;62.40;;;31.85;;
59066;SDS011;44854;50.838;4.438;2024-01-11T12:13:47;60.60;;;30.40;;
59066;SDS011;44854;50.838;4.438;2024-01-11T12:16:14;60.72;;;30.20;;
59066;SDS011;44854;50.838;4.438;2024-01-11T12:18:40;65.72;;;31.65;;
59066;SDS011;44854;50.838;4.438;2024-01-11T12:21:07;61.22;;;30.85;;
59066;SDS011;44854;50.838;4.438;2024-01-11T12:23:33;56.35;;;29.08;;
59066;SDS011;44854;50.838;4.438;2024-01-11T12:26:02;52.70;;;30.05;;
59066;SDS011;44854;50.838;4.438;2024-01-11T12:28:31;57.80;;;29.58;;
59066;SDS011;44854;50.838;4.438;2024-01-11T12:30:58;52.47;;;29.15;;
59066;SDS011;44854;50.838;4.438;2024-01-11T12:33:26;58.92;;;28.55;;
59066;SDS011;44854;50.838;4.438;2024-01-11T12:35:53;53.40;;;28.35;;
59066;SDS011;44854;50.838;4.438;2024-01-11T12:38:19;48.33;;;26.80;;
59066;SDS011;44854;50.838;4.438;2024-01-11T12:40:45;50.40;;;26.75;;
59066;SDS011;44854;50.838;4.438;2024-01-11T12:43:12;50.90;;;25.58;;
59066;SDS011;44854;50.838;4.438;2024-01-11T12:45:39;50.28;;;25.55;;
59066;SDS011;44854;50.838;4.438;2024-01-11T12:48:08;62.30;;;28.63;;
59066;SDS011;44854;50.838;4.438;2024-01-11T12:50:34;53.58;;;27.90;;
59066;SDS011;44854;50.838;4.438;2024-01-11T12:55:43;50.22;;;24.73;;
59066;SDS011;44854;50.838;4.438;2024-01-11T12:58:10;48.15;;;25.42;;
59066;SDS011;44854;50.838;4.438;2024-01-11T13:00:36;45.28;;;25.05;;
59066;SDS011;44854;50.838;4.438;2024-01-11T13:03:06;48.25;;;25.10;;
59066;SDS011;44854;50.838;4.438;2024-01-11T13:05:32;48.90;;;25.33;;
59066;SDS011;44854;50.838;4.438;2024-01-11T13:10:27;47.95;;;25.38;;
59066;SDS011;44854;50.838;4.438;2024-01-11T13:12:54;50.50;;;25.80;;
59066;SDS011;44854;50.838;4.438;2024-01-11T13:15:26;45.08;;;24.77;;
59066;SDS011;44854;50.838;4.438;2024-01-11T13:17:56;44.05;;;24.75;;
59066;SDS011;44854;50.838;4.438;2024-01-11T13:20:22;44.17;;;24.88;;
59066;SDS011;44854;50.838;4.438;2024-01-11T13:22:55;53.00;;;25.63;;
59066;SDS011;44854;50.838;4.438;2024-01-11T13:25:43;44.17;;;24.13;;
59066;SDS011;44854;50.838;4.438;2024-01-11T13:28:10;47.97;;;23.35;;
59066;SDS011;44854;50.838;4.438;2024-01-11T13:30:42;52.28;;;25.05;;
59066;SDS011;44854;50.838;4.438;2024-01-11T13:33:11;44.55;;;24.02;;
59066;SDS011;44854;50.838;4.438;2024-01-11T13:35:40;46.72;;;23.33;;
59066;SDS011;44854;50.838;4.438;2024-01-11T13:38:08;50.10;;;23.75;;
59066;SDS011;44854;50.838;4.438;2024-01-11T13:40:34;40.60;;;21.25;;
59066;SDS011;44854;50.838;4.438;2024-01-11T13:42:59;33.83;;;18.52;;
59066;SDS011;44854;50.838;4.438;2024-01-11T13:45:26;42.90;;;24.33;;
59066;SDS011;44854;50.838;4.438;2024-01-11T13:47:53;43.72;;;24.58;;
59066;SDS011;44854;50.838;4.438;2024-01-11T13:50:19;47.80;;;25.10;;
59066;SDS011;44854;50.838;4.438;2024-01-11T13:52:46;45.05;;;23.75;;
59066;SDS011;44854;50.838;4.438;2024-01-11T13:55:12;44.20;;;24.70;;
59066;SDS011;44854;50.838;4.438;2024-01-11T13:57:38;53.40;;;25.07;;
59066;SDS011;44854;50.838;4.438;2024-01-11T14:00:05;59.53;;;23.92;;
59066;SDS011;44854;50.838;4.438;2024-01-11T14:02:31;39.90;;;23.27;;
59066;SDS011;44854;50.838;4.438;2024-01-11T14:04:58;42.22;;;21.02;;
59066;SDS011;44854;50.838;4.438;2024-01-11T14:07:23;44.20;;;23.30;;
59066;SDS011;44854;50.838;4.438;2024-01-11T14:09:50;43.50;;;23.25;;
59066;SDS011;44854;50.838;4.438;2024-01-11T14:12:16;44.67;;;23.73;;
59066;SDS011;44854;50.838;4.438;2024-01-11T14:14:42;43.38;;;23.92;;
59066;SDS011;44854;50.838;4.438;2024-01-11T14:17:08;44.30;;;23.83;;
59066;SDS011;44854;50.838;4.438;2024-01-11T14:19:35;48.40;;;23.85;;
59066;SDS011;44854;50.838;4.438;2024-01-11T14:22:00;40.03;;;23.35;;
59066;SDS011;44854;50.838;4.438;2024-01-11T14:24:26;37.88;;;23.08;;
59066;SDS011;44854;50.838;4.438;2024-01-11T14:26:53;44.97;;;23.60;;
59066;SDS011;44854;50.838;4.438;2024-01-11T14:29:19;43.63;;;23.42;;
59066;SDS011;44854;50.838;4.438;2024-01-11T14:31:45;41.97;;;22.88;;
59066;SDS011;44854;50.838;4.438;2024-01-11T14:34:11;36.85;;;22.98;;
59066;SDS011;44854;50.838;4.438;2024-01-11T14:36:37;37.08;;;21.88;;
59066;SDS011;44854;50.838;4.438;2024-01-11T14:39:03;50.50;;;26.80;;
59066;SDS011;44854;50.838;4.438;2024-01-11T14:41:30;45.83;;;22.83;;
59066;SDS011;44854;50.838;4.438;2024-01-11T14:43:58;36.38;;;21.25;;
59066;SDS011;44854;50.838;4.438;2024-01-11T14:46:28;46.65;;;23.27;;
59066;SDS011;44854;50.838;4.438;2024-01-11T14:48:54;43.58;;;22.60;;
59066;SDS011;44854;50.838;4.438;2024-01-11T14:51:20;44.15;;;22.35;;
59066;SDS011;44854;50.838;4.438;2024-01-11T14:53:46;65.47;;;23.67;;
59066;SDS011;44854;50.838;4.438;2024-01-11T14:56:11;43.17;;;23.33;;
59066;SDS011;44854;50.838;4.438;2024-01-11T14:58:38;42.80;;;22.38;;
59066;SDS011;44854;50.838;4.438;2024-01-11T15:01:03;42.70;;;21.35;;
59066;SDS011;44854;50.838;4.438;2024-01-11T15:03:29;44.90;;;23.77;;
59066;SDS011;44854;50.838;4.438;2024-01-11T15:05:56;43.35;;;23.73;;
59066;SDS011;44854;50.838;4.438;2024-01-11T15:08:24;37.92;;;22.58;;
59066;SDS011;44854;50.838;4.438;2024-01-11T15:10:51;48.47;;;21.92;;
59066;SDS011;44854;50.838;4.438;2024-01-11T15:13:16;43.58;;;23.08;;
59066;SDS011;44854;50.838;4.438;2024-01-11T15:15:42;50.97;;;23.25;;
59066;SDS011;44854;50.838;4.438;2024-01-11T15:18:08;53.90;;;24.42;;
59066;SDS011;44854;50.838;4.438;2024-01-11T15:20:34;45.63;;;24.00;;
59066;SDS011;44854;50.838;4.438;2024-01-11T15:22:59;44.53;;;23.33;;
59066;SDS011;44854;50.838;4.438;2024-01-11T15:25:25;46.53;;;25.15;;
59066;SDS011;44854;50.838;4.438;2024-01-11T15:27:52;49.30;;;25.35;;
59066;SDS011;44854;50.838;4.438;2024-01-11T15:30:19;46.42;;;25.33;;
59066;SDS011;44854;50.838;4.438;2024-01-11T15:32:45;54.38;;;24.08;;
59066;SDS011;44854;50.838;4.438;2024-01-11T15:35:11;48.72;;;24.25;;
59066;SDS011;44854;50.838;4.438;2024-01-11T15:37:39;41.00;;;22.88;;
59066;SDS011;44854;50.838;4.438;2024-01-11T15:40:05;44.70;;;24.55;;
59066;SDS011;44854;50.838;4.438;2024-01-11T15:42:33;48.53;;;24.50;;
59066;SDS011;44854;50.838;4.438;2024-01-11T15:45:04;50.05;;;24.90;;
59066;SDS011;44854;50.838;4.438;2024-01-11T15:47:34;45.13;;;26.30;;
59066;SDS011;44854;50.838;4.438;2024-01-11T15:50:09;45.42;;;24.40;;
59066;SDS011;44854;50.838;4.438;2024-01-11T15:52:39;44.78;;;25.02;;
59066;SDS011;44854;50.838;4.438;2024-01-11T15:55:11;48.10;;;26.08;;
59066;SDS011;44854;50.838;4.438;2024-01-11T15:57:45;48.15;;;25.02;;
59066;SDS011;44854;50.838;4.438;2024-01-11T16:00:27;47.72;;;26.73;;
59066;SDS011;44854;50.838;4.438;2024-01-11T16:02:59;43.22;;;25.08;;
59066;SDS011;44854;50.838;4.438;2024-01-11T16:05:25;47.65;;;24.10;;
59066;SDS011;44854;50.838;4.438;2024-01-11T16:07:50;48.40;;;25.95;;
59066;SDS011;44854;50.838;4.438;2024-01-11T16:10:22;49.70;;;24.02;;
59066;SDS011;44854;50.838;4.438;2024-01-11T16:12:51;53.97;;;27.23;;
59066;SDS011;44854;50.838;4.438;2024-01-11T16:15:23;48.38;;;24.00;;
59066;SDS011;44854;50.838;4.438;2024-01-11T16:17:55;49.28;;;23.95;;
59066;SDS011;44854;50.838;4.438;2024-01-11T16:20:21;47.42;;;21.83;;
59066;SDS011;44854;50.838;4.438;2024-01-11T16:22:46;37.67;;;21.95;;
59066;SDS011;44854;50.838;4.438;2024-01-11T16:25:13;44.78;;;20.27;;
59066;SDS011;44854;50.838;4.438;2024-01-11T16:27:39;35.00;;;18.88;;
59066;SDS011;44854;50.838;4.438;2024-01-11T16:30:07;30.73;;;18.17;;
59066;SDS011;44854;50.838;4.438;2024-01-11T16:32:37;32.85;;;17.00;;
59066;SDS011;44854;50.838;4.438;2024-01-11T16:35:03;31.13;;;15.52;;
59066;SDS011;44854;50.838;4.438;2024-01-11T16:37:30;27.30;;;15.10;;
59066;SDS011;44854;50.838;4.438;2024-01-11T16:39:55;28.65;;;15.65;;
59066;SDS011;44854;50.838;4.438;2024-01-11T16:42:21;32.75;;;16.40;;
59066;SDS011;44854;50.838;4.438;2024-01-11T16:44:49;26.25;;;15.40;;
59066;SDS011;44854;50.838;4.438;2024-01-11T16:47:15;33.97;;;15.77;;
59066;SDS011;44854;50.838;4.438;2024-01-11T16:49:41;26.35;;;16.90;;
59066;SDS011;44854;50.838;4.438;2024-01-11T16:52:08;23.80;;;14.83;;
59066;SDS011;44854;50.838;4.438;2024-01-11T16:54:34;31.88;;;17.05;;
59066;SDS011;44854;50.838;4.438;2024-01-11T16:57:00;28.88;;;16.77;;
59066;SDS011;44854;50.838;4.438;2024-01-11T16:59:26;32.05;;;16.60;;
59066;SDS011;44854;50.838;4.438;2024-01-11T17:01:52;27.35;;;16.13;;
59066;SDS011;44854;50.838;4.438;2024-01-11T17:04:20;28.67;;;16.70;;
59066;SDS011;44854;50.838;4.438;2024-01-11T17:06:46;30.88;;;17.33;;
59066;SDS011;44854;50.838;4.438;2024-01-11T17:09:12;34.63;;;18.58;;
59066;SDS011;44854;50.838;4.438;2024-01-11T17:11:38;29.80;;;18.50;;
59066;SDS011;44854;50.838;4.438;2024-01-11T17:14:05;34.70;;;19.30;;
59066;SDS011;44854;50.838;4.438;2024-01-11T17:16:32;38.08;;;17.10;;
59066;SDS011;44854;50.838;4.438;2024-01-11T17:18:58;32.05;;;17.50;;
59066;SDS011;44854;50.838;4.438;2024-01-11T17:21:23;28.65;;;17.35;;
59066;SDS011;44854;50.838;4.438;2024-01-11T17:23:50;40.75;;;24.23;;
59066;SDS011;44854;50.838;4.438;2024-01-11T17:26:16;33.50;;;18.70;;
59066;SDS011;44854;50.838;4.438;2024-01-11T17:28:43;43.35;;;23.33;;
59066;SDS011;44854;50.838;4.438;2024-01-11T17:31:09;62.17;;;32.58;;
59066;SDS011;44854;50.838;4.438;2024-01-11T17:33:34;36.97;;;18.67;;
59066;SDS011;44854;50.838;4.438;2024-01-11T17:36:00;37.88;;;19.95;;
59066;SDS011;44854;50.838;4.438;2024-01-11T17:38:26;37.10;;;20.13;;
59066;SDS011;44854;50.838;4.438;2024-01-11T17:40:52;44.53;;;24.27;;
59066;SDS011;44854;50.838;4.438;2024-01-11T17:43:17;42.30;;;22.38;;
59066;SDS011;44854;50.838;4.438;2024-01-11T17:45:44;57.88;;;31.60;;
59066;SDS011;44854;50.838;4.438;2024-01-11T17:48:13;50.67;;;32.15;;
59066;SDS011;44854;50.838;4.438;2024-01-11T17:50:42;33.88;;;20.30;;
59066;SDS011;44854;50.838;4.438;2024-01-11T17:53:08;48.67;;;29.75;;
59066;SDS011;44854;50.838;4.438;2024-01-11T17:55:34;46.33;;;27.25;;
59066;SDS011;44854;50.838;4.438;2024-01-11T17:58:00;36.50;;;19.10;;
59066;SDS011;44854;50.838;4.438;2024-01-11T18:00:25;37.40;;;20.40;;
59066;SDS011;44854;50.838;4.438;2024-01-11T18:02:55;35.50;;;20.25;;
59066;SDS011;44854;50.838;4.438;2024-01-11T18:05:20;40.17;;;21.17;;
59066;SDS011;44854;50.838;4.438;2024-01-11T18:07:46;37.40;;;21.25;;
59066;SDS011;44854;50.838;4.438;2024-01-11T18:10:12;42.30;;;23.10;;
59066;SDS011;44854;50.838;4.438;2024-01-11T18:15:06;41.92;;;22.35;;
59066;SDS011;44854;50.838;4.438;2024-01-11T18:17:32;41.40;;;20.95;;
59066;SDS011;44854;50.838;4.438;2024-01-11T18:20:04;39.92;;;22.23;;
59066;SDS011;44854;50.838;4.438;2024-01-11T18:22:31;38.58;;;22.20;;
59066;SDS011;44854;50.838;4.438;2024-01-11T18:24:57;39.53;;;21.75;;
59066;SDS011;44854;50.838;4.438;2024-01-11T18:27:23;36.25;;;20.90;;
59066;SDS011;44854;50.838;4.438;2024-01-11T18:29:49;38.53;;;21.92;;
59066;SDS011;44854;50.838;4.438;2024-01-11T18:32:14;38.42;;;21.67;;
59066;SDS011;44854;50.838;4.438;2024-01-11T18:34:40;39.38;;;21.65;;
59066;SDS011;44854;50.838;4.438;2024-01-11T18:37:06;39.38;;;22.52;;
59066;SDS011;44854;50.838;4.438;2024-01-11T18:39:32;44.53;;;21.92;;
59066;SDS011;44854;50.838;4.438;2024-01-11T18:41:58;40.47;;;23.08;;
59066;SDS011;44854;50.838;4.438;2024-01-11T18:44:25;43.35;;;23.25;;
59066;SDS011;44854;50.838;4.438;2024-01-11T18:46:51;41.08;;;22.88;;
59066;SDS011;44854;50.838;4.438;2024-01-11T18:49:17;41.97;;;22.65;;
59066;SDS011;44854;50.838;4.438;2024-01-11T18:51:44;39.35;;;23.33;;
59066;SDS011;44854;50.838;4.438;2024-01-11T18:54:10;43.22;;;22.30;;
59066;SDS011;44854;50.838;4.438;2024-01-11T18:56:36;36.63;;;22.25;;
59066;SDS011;44854;50.838;4.438;2024-01-11T18:59:03;37.30;;;22.20;;
59066;SDS011;44854;50.838;4.438;2024-01-11T19:01:30;38.08;;;22.88;;
59066;SDS011;44854;50.838;4.438;2024-01-11T19:03:56;46.63;;;22.70;;
59066;SDS011;44854;50.838;4.438;2024-01-11T19:06:21;37.60;;;21.60;;
59066;SDS011;44854;50.838;4.438;2024-01-11T19:08:48;40.05;;;23.25;;
59066;SDS011;44854;50.838;4.438;2024-01-11T19:11:14;41.92;;;23.40;;
59066;SDS011;44854;50.838;4.438;2024-01-11T19:13:40;41.60;;;23.15;;
59066;SDS011;44854;50.838;4.438;2024-01-11T19:16:06;39.35;;;21.77;;
59066;SDS011;44854;50.838;4.438;2024-01-11T19:18:32;46.22;;;22.63;;
59066;SDS011;44854;50.838;4.438;2024-01-11T19:20:57;42.72;;;24.30;;
59066;SDS011;44854;50.838;4.438;2024-01-11T19:23:23;39.08;;;23.48;;
59066;SDS011;44854;50.838;4.438;2024-01-11T19:25:55;36.92;;;21.20;;
59066;SDS011;44854;50.838;4.438;2024-01-11T19:28:22;37.85;;;22.33;;
59066;SDS011;44854;50.838;4.438;2024-01-11T19:30:51;41.38;;;23.55;;
59066;SDS011;44854;50.838;4.438;2024-01-11T19:33:17;35.40;;;22.08;;
59066;SDS011;44854;50.838;4.438;2024-01-11T19:35:46;40.50;;;23.08;;
59066;SDS011;44854;50.838;4.438;2024-01-11T19:38:12;39.90;;;23.13;;
59066;SDS011;44854;50.838;4.438;2024-01-11T19:40:39;45.08;;;27.20;;
59066;SDS011;44854;50.838;4.438;2024-01-11T19:43:05;40.92;;;23.83;;
59066;SDS011;44854;50.838;4.438;2024-01-11T19:45:31;44.75;;;23.67;;
59066;SDS011;44854;50.838;4.438;2024-01-11T19:47:57;46.30;;;23.52;;
59066;SDS011;44854;50.838;4.438;2024-01-11T19:50:23;45.03;;;25.27;;
59066;SDS011;44854;50.838;4.438;2024-01-11T19:52:49;43.45;;;25.25;;
59066;SDS011;44854;50.838;4.438;2024-01-11T19:55:16;49.45;;;25.70;;
59066;SDS011;44854;50.838;4.438;2024-01-11T19:57:41;41.03;;;23.92;;
59066;SDS011;44854;50.838;4.438;2024-01-11T20:00:08;44.33;;;23.70;;
59066;SDS011;44854;50.838;4.438;2024-01-11T20:02:35;43.97;;;24.02;;
59066;SDS011;44854;50.838;4.438;2024-01-11T20:05:02;42.25;;;24.92;;
59066;SDS011;44854;50.838;4.438;2024-01-11T20:07:30;44.22;;;25.20;;
59066;SDS011;44854;50.838;4.438;2024-01-11T20:09:55;46.65;;;24.50;;
59066;SDS011;44854;50.838;4.438;2024-01-11T20:12:22;45.22;;;25.20;;
59066;SDS011;44854;50.838;4.438;2024-01-11T20:14:48;42.70;;;26.48;;
59066;SDS011;44854;50.838;4.438;2024-01-11T20:17:14;49.20;;;26.17;;
59066;SDS011;44854;50.838;4.438;2024-01-11T20:19:42;48.58;;;27.17;;
59066;SDS011;44854;50.838;4.438;2024-01-11T20:22:13;47.17;;;26.60;;
59066;SDS011;44854;50.838;4.438;2024-01-11T20:24:59;47.90;;;26.15;;